Time;durP1;ratioP1;P1;durP2;ratioP2;P2;SDS_P1;SDS_P2;PMS_P1;PMS_P2;Temp;Humidity;BMP_temperature;BMP_pressure;BME280_temperature;BME280_humidity;BME280_pressure;Samples;Min_cycle;Max_cycle;Signal;HPM_P1;HPM_P2
2023/04/24 00:00:27;;;;;;;;;;;;;;;17.53;40.88;99147.37;4442815;32;34164;-89
2023/04/24 00:03:00;;;;;;;;;;;;;;;17.67;40.26;99139.91;4442294;32;32525;-89
2023/04/24 00:05:34;;;;;;;;;;;;;;;17.57;41.06;99151.47;4431505;32;34477;-89
2023/04/24 00:08:03;;;;;;;;;;;;;;;17.56;41.91;99149.75;4428979;32;32986;-86
2023/04/24 00:10:30;;;;;;;;;;;;;;;17.41;42.99;99151.88;4440062;32;34216;-87
2023/04/24 00:12:58;;;;;;;;;;;;;;;17.35;43.35;99147.06;4441761;32;34523;-88
2023/04/24 00:15:26;;;;;;;;;;;;;;;17.23;44.04;99146.22;4426989;32;33873;-87
2023/04/24 00:18:02;;;;;;;;;;;;;;;17.25;43.89;99140.78;4440348;32;34305;-87
2023/04/24 00:20:32;;;;;;;;;;;;;;;17.05;44.54;99140.59;4442495;32;33346;-87
2023/04/24 00:22:59;;;;;;;;;;;;;;;17.21;44.85;99144.66;4434366;32;31922;-87
2023/04/24 00:25:27;;;;;;;;;;;;;;;17.00;47.92;99141.94;4439683;32;33724;-85
2023/04/24 00:27:54;;;;;;;;;;;;;;;16.96;46.41;99152.00;4430767;32;33282;-85
2023/04/24 00:30:22;;;;;;;;;;;;;;;16.66;49.00;99144.56;4443057;32;33142;-85
2023/04/24 00:32:49;;;;;;;;;;;;;;;16.83;47.70;99146.78;4438768;32;33348;-86
2023/04/24 00:35:19;;;;;;;;;;;;;;;16.91;47.15;99140.84;4441695;32;34522;-86
2023/04/24 00:37:47;;;;;;;;;;;;;;;16.72;47.04;99136.12;4439738;32;33819;-86
2023/04/24 00:40:15;;;;;;;;;;;;;;;17.03;45.47;99131.84;4441853;32;35165;-85
2023/04/24 00:42:43;;;;;;;;;;;;;;;16.99;45.26;99125.06;4440915;32;33342;-86
2023/04/24 00:45:12;;;;;;;;;;;;;;;16.94;44.84;99119.25;4427598;32;34352;-85
2023/04/24 00:47:39;;;;;;;;;;;;;;;16.96;44.27;99122.66;4436627;32;33027;-86
2023/04/24 00:50:07;;;;;;;;;;;;;;;16.88;44.71;99117.94;4440779;32;33780;-85
2023/04/24 00:52:34;;;;;;;;;;;;;;;16.99;45.05;99121.53;4434909;32;32709;-85
2023/04/24 00:55:02;;;;;;;;;;;;;;;17.09;43.94;99114.47;4434057;32;33278;-85
2023/04/24 00:57:31;;;;;;;;;;;;;;;17.02;44.58;99118.63;4442685;32;34258;-85
2023/04/24 01:00:03;;;;;;;;;;;;;;;16.76;45.83;99131.38;4413531;32;34264;-85
2023/04/24 01:02:34;;;;;;;;;;;;;;;16.83;44.91;99116.59;4443738;32;32215;-85
2023/04/24 01:05:02;;;;;;;;;;;;;;;16.89;44.75;99124.09;4438611;32;34121;-84
2023/04/24 01:07:29;;;;;;;;;;;;;;;16.74;45.12;99104.84;4411806;32;940401;-85
2023/04/24 01:09:57;;;;;;;;;;;;;;;16.91;44.53;99106.19;4443164;32;34056;-86
2023/04/24 01:12:25;;;;;;;;;;;;;;;16.77;45.08;99112.62;4422029;32;32369;-85
2023/04/24 01:14:52;;;;;;;;;;;;;;;16.84;45.42;99107.63;4442297;32;34913;-86
2023/04/24 01:17:20;;;;;;;;;;;;;;;16.88;45.78;99109.09;4445678;32;33416;-86
2023/04/24 01:19:48;;;;;;;;;;;;;;;16.85;45.27;99109.31;4444684;32;34183;-88
2023/04/24 01:22:21;;;;;;;;;;;;;;;16.63;46.04;99103.03;4447546;32;32283;-88
2023/04/24 01:24:50;;;;;;;;;;;;;;;16.95;44.80;99091.63;4446488;32;33320;-87
2023/04/24 01:27:17;;;;;;;;;;;;;;;16.73;46.11;99086.31;4430175;32;32952;-88
2023/04/24 01:29:45;;;;;;;;;;;;;;;16.72;46.40;99073.97;4438482;32;33652;-88
2023/04/24 01:32:13;;;;;;;;;;;;;;;17.03;45.79;99065.16;4428405;32;32326;-87
2023/04/24 01:34:40;;;;;;;;;;;;;;;16.74;47.59;99078.19;4444549;32;32520;-86
2023/04/24 01:37:08;;;;;;;;;;;;;;;16.59;47.59;99071.41;4432280;32;34255;-85
2023/04/24 01:39:36;;;;;;;;;;;;;;;16.71;47.95;99067.78;4427723;32;32463;-86
2023/04/24 01:42:04;;;;;;;;;;;;;;;16.32;49.63;99061.13;4431662;32;33264;-85
2023/04/24 01:44:31;;;;;;;;;;;;;;;16.60;48.98;99060.62;4444826;32;33946;-86
2023/04/24 01:47:01;;;;;;;;;;;;;;;16.89;48.65;99062.78;4430598;32;33430;-86
2023/04/24 01:49:29;;;;;;;;;;;;;;;16.70;49.56;99063.37;4442911;32;34279;-86
2023/04/24 01:51:57;;;;;;;;;;;;;;;16.99;48.81;99060.19;4436919;32;32063;-86
2023/04/24 01:54:27;;;;;;;;;;;;;;;16.88;49.56;99061.94;4446438;32;34287;-87
2023/04/24 01:56:56;;;;;;;;;;;;;;;17.19;48.81;99050.59;4445245;32;33087;-87
2023/04/24 01:59:24;;;;;;;;;;;;;;;17.24;49.13;99043.03;4445769;32;34270;-85
2023/04/24 02:01:52;;;;;;;;;;;;;;;17.27;49.31;99035.59;4445140;32;33283;-85
2023/04/24 02:04:20;;;;;;;;;;;;;;;17.02;50.51;99036.81;4430449;32;32858;-85
2023/04/24 02:06:49;;;;;;;;;;;;;;;16.93;50.12;99034.88;4442716;32;34046;-85
2023/04/24 02:09:16;;;;;;;;;;;;;;;16.82;50.20;99032.28;4443691;32;33146;-85
2023/04/24 02:11:44;;;;;;;;;;;;;;;16.54;50.54;99039.78;4440900;32;33027;-85
2023/04/24 02:14:13;;;;;;;;;;;;;;;16.64;50.49;99034.56;4430107;32;33529;-85
2023/04/24 02:16:40;;;;;;;;;;;;;;;16.31;51.39;99030.12;4441449;32;33057;-85
2023/04/24 02:19:08;;;;;;;;;;;;;;;16.36;52.02;99020.78;4442720;32;34672;-85
2023/04/24 02:21:36;;;;;;;;;;;;;;;16.27;52.47;99026.84;4444534;32;33168;-85
2023/04/24 02:24:04;;;;;;;;;;;;;;;16.30;52.50;99031.94;4446290;32;33611;-85
2023/04/24 02:26:31;;;;;;;;;;;;;;;16.35;52.47;99028.91;4428758;32;33181;-86
2023/04/24 02:28:59;;;;;;;;;;;;;;;16.47;52.64;99033.25;4442431;32;34557;-85
2023/04/24 02:31:27;;;;;;;;;;;;;;;16.59;52.23;99032.28;4427519;32;31905;-86
2023/04/24 02:33:55;;;;;;;;;;;;;;;16.67;51.84;99028.16;4439082;32;32800;-86
2023/04/24 02:36:23;;;;;;;;;;;;;;;16.70;51.67;99022.56;4435641;32;32967;-86
2023/04/24 02:38:57;;;;;;;;;;;;;;;16.68;51.89;99021.84;4442657;32;34862;-86
2023/04/24 02:41:24;;;;;;;;;;;;;;;16.55;52.24;99020.16;4441569;32;33027;-86
2023/04/24 02:43:52;;;;;;;;;;;;;;;16.61;52.20;99014.31;4443346;32;34354;-85
2023/04/24 02:46:20;;;;;;;;;;;;;;;16.75;52.10;99020.41;4442442;32;34916;-86
2023/04/24 02:48:49;;;;;;;;;;;;;;;16.66;52.55;99019.28;4443292;32;33987;-86
2023/04/24 02:51:16;;;;;;;;;;;;;;;16.77;52.19;99018.47;4442562;32;33734;-86
2023/04/24 02:53:44;;;;;;;;;;;;;;;16.90;51.88;99016.47;4440720;32;33596;-86
2023/04/24 02:56:12;;;;;;;;;;;;;;;16.86;52.11;99002.56;4441206;32;35038;-88
2023/04/24 02:58:39;;;;;;;;;;;;;;;16.91;52.26;99001.34;4442914;32;35833;-88
2023/04/24 03:01:07;;;;;;;;;;;;;;;16.70;52.82;99011.91;4435249;32;33097;-88
2023/04/24 03:03:36;;;;;;;;;;;;;;;16.75;52.58;98999.06;4442203;32;32701;-88
2023/04/24 03:06:07;;;;;;;;;;;;;;;16.77;52.44;99005.13;4435203;32;33158;-87
2023/04/24 03:08:35;;;;;;;;;;;;;;;16.75;52.68;98999.06;4438519;32;34704;-87
2023/04/24 03:11:03;;;;;;;;;;;;;;;16.64;52.20;98997.25;4438500;32;32374;-88
2023/04/24 03:13:31;;;;;;;;;;;;;;;16.54;52.88;98994.50;4442609;32;34744;-88
2023/04/24 03:15:59;;;;;;;;;;;;;;;16.65;52.13;99001.59;4438761;32;33073;-86
2023/04/24 03:18:28;;;;;;;;;;;;;;;16.60;52.17;98999.31;4442968;32;32944;-85
2023/04/24 03:20:58;;;;;;;;;;;;;;;16.57;52.63;98998.75;4445235;32;33225;-85
2023/04/24 03:23:26;;;;;;;;;;;;;;;16.59;52.58;98994.97;4443497;32;34175;-85
2023/04/24 03:25:54;;;;;;;;;;;;;;;16.65;52.50;98989.13;4445293;32;33279;-85
2023/04/24 03:28:24;;;;;;;;;;;;;;;16.61;52.90;98993.00;4446675;32;34246;-85
2023/04/24 03:30:53;;;;;;;;;;;;;;;16.65;53.32;98989.13;4445355;32;33435;-85
2023/04/24 03:33:27;;;;;;;;;;;;;;;16.62;53.56;98994.72;4443608;32;34945;-85
2023/04/24 03:35:55;;;;;;;;;;;;;;;16.76;53.18;98990.09;4431444;32;33949;-85
2023/04/24 03:38:23;;;;;;;;;;;;;;;16.68;53.33;98992.53;4438420;32;33805;-87
2023/04/24 03:40:52;;;;;;;;;;;;;;;16.80;52.77;98986.19;4433170;32;33022;-87
2023/04/24 03:43:22;;;;;;;;;;;;;;;16.65;53.32;98977.63;4434450;32;33178;-87
2023/04/24 03:45:50;;;;;;;;;;;;;;;16.31;53.74;98988.34;4441496;32;35147;-95
2023/04/24 03:48:42;;;;;;;;;;;;;;;16.44;53.01;98985.56;4414102;32;33652;-94
2023/04/24 03:51:33;;;;;;;;;;;;;;;16.50;52.62;98966.41;4390765;32;31939;-95
2023/04/24 03:54:15;;;;;;;;;;;;;;;16.55;52.40;98966.88;4397325;32;32844;-94
2023/04/24 03:57:09;;;;;;;;;;;;;;;16.37;52.81;98968.34;4390017;32;34110;-95
2023/04/24 04:00:09;;;;;;;;;;;;;;;15.68;54.62;98976.50;4414065;32;34828;-96
2023/04/24 04:03:03;;;;;;;;;;;;;;;15.83;54.36;98991.25;4410818;32;33205;-94
2023/04/24 04:05:46;;;;;;;;;;;;;;;15.89;54.64;98989.94;4399543;32;33002;-95
2023/04/24 04:08:35;;;;;;;;;;;;;;;15.88;55.12;98997.06;4399476;32;34239;-95
2023/04/24 04:11:21;;;;;;;;;;;;;;;15.97;55.06;98995.50;4427635;32;33535;-95
2023/04/24 04:14:03;;;;;;;;;;;;;;;16.06;54.75;98985.94;4445491;32;32360;-94
2023/04/24 04:16:46;;;;;;;;;;;;;;;16.19;54.68;98976.03;4379809;32;33258;-96
2023/04/24 04:19:42;;;;;;;;;;;;;;;15.58;56.36;98986.13;4469215;32;34675;-95
2023/04/24 04:22:19;;;;;;;;;;;;;;;15.70;55.85;99001.16;4433668;32;33724;-89
2023/04/24 04:24:48;;;;;;;;;;;;;;;15.85;55.37;98996.47;4434837;32;33312;-89
2023/04/24 04:27:28;;;;;;;;;;;;;;;15.81;55.55;99003.00;4441662;32;33009;-89
2023/04/24 04:29:56;;;;;;;;;;;;;;;15.99;55.21;98995.37;4446137;32;34524;-89
2023/04/24 04:32:25;;;;;;;;;;;;;;;16.05;54.97;98995.75;4436041;32;32885;-89
2023/04/24 04:34:54;;;;;;;;;;;;;;;16.00;54.94;98992.63;4448165;32;33205;-89
2023/04/24 04:37:33;;;;;;;;;;;;;;;15.87;55.62;98997.22;4437375;32;32676;-90
2023/04/24 04:40:32;;;;;;;;;;;;;;;15.71;55.61;98991.38;4439150;32;33535;-88
2023/04/24 04:43:01;;;;;;;;;;;;;;;15.87;55.08;98992.72;4436662;32;32623;-89
2023/04/24 04:45:30;;;;;;;;;;;;;;;15.90;54.75;98991.62;4423960;32;32801;-89
2023/04/24 04:48:23;;;;;;;;;;;;;;;15.62;55.34;98998.25;4407269;32;32890;-91
2023/04/24 04:51:17;;;;;;;;;;;;;;;15.83;55.04;98991.25;4397103;32;32719;-91
2023/04/24 04:53:59;;;;;;;;;;;;;;;15.99;55.02;98992.72;4420438;32;33313;-90
2023/04/24 04:56:46;;;;;;;;;;;;;;;15.85;55.34;98991.12;4410147;32;33385;-89
2023/04/24 04:59:17;;;;;;;;;;;;;;;16.24;54.41;98984.50;4408935;32;33011;-88
2023/04/24 05:01:48;;;;;;;;;;;;;;;16.00;55.07;98987.28;4422835;32;33910;-87
2023/04/24 05:04:18;;;;;;;;;;;;;;;15.86;55.82;98984.88;4397520;32;32847;-87
2023/04/24 05:06:48;;;;;;;;;;;;;;;15.96;55.82;98985.84;4408451;32;32460;-88
2023/04/24 05:09:19;;;;;;;;;;;;;;;15.96;55.81;98985.84;4422631;32;34406;-88
2023/04/24 05:11:47;;;;;;;;;;;;;;;16.01;54.75;98988.13;4411176;32;33970;-87
2023/04/24 05:14:20;;;;;;;;;;;;;;;16.12;55.30;98983.62;4426590;32;32594;-86
2023/04/24 05:16:51;;;;;;;;;;;;;;;16.25;55.14;98982.69;4425043;32;31742;-86
2023/04/24 05:19:21;;;;;;;;;;;;;;;16.43;54.77;98977.69;4416332;32;33301;-87
2023/04/24 05:21:50;;;;;;;;;;;;;;;16.56;54.25;98981.03;4409776;32;33943;-87
2023/04/24 05:24:19;;;;;;;;;;;;;;;16.47;54.93;98985.28;4426135;32;32996;-91
2023/04/24 05:27:27;;;;;;;;;;;;;;;16.64;54.43;98986.59;4409593;32;33868;-90
2023/04/24 05:30:09;;;;;;;;;;;;;;;16.70;54.04;98978.09;4410055;32;32674;-89
2023/04/24 05:32:41;;;;;;;;;;;;;;;16.62;54.33;98977.88;4404119;32;34050;-90
2023/04/24 05:35:29;;;;;;;;;;;;;;;16.48;54.82;98986.16;4408998;32;32847;-91
2023/04/24 05:38:24;;;;;;;;;;;;;;;16.16;55.80;98980.75;4430865;32;32316;-91
2023/04/24 05:41:06;;;;;;;;;;;;;;;16.18;56.82;98987.63;4395299;32;32943;-91
2023/04/24 05:43:49;;;;;;;;;;;;;;;16.39;55.59;98988.59;4398277;32;33343;-93
2023/04/24 05:46:43;;;;;;;;;;;;;;;16.54;54.66;98981.16;4428227;32;35694;-92
2023/04/24 05:49:29;;;;;;;;;;;;;;;16.73;54.27;98982.38;4397960;32;32438;-92
2023/04/24 05:52:20;;;;;;;;;;;;;;;16.68;54.68;98981.88;4410745;32;34539;-93
2023/04/24 05:55:18;;;;;;;;;;;;;;;16.59;54.59;98989.63;4393801;32;34790;-92
2023/04/24 06:01:39;;;;;;;;;;;;;;;16.72;54.77;98994.00;4412163;32;34098;-92
2023/04/24 06:04:21;;;;;;;;;;;;;;;16.90;54.31;98992.47;4408989;32;32808;-93
2023/04/24 06:07:03;;;;;;;;;;;;;;;16.26;55.62;99000.34;4428272;32;35077;-94
2023/04/24 06:09:56;;;;;;;;;;;;;;;16.70;54.02;98995.91;4428038;32;32445;-91
2023/04/24 06:12:50;;;;;;;;;;;;;;;16.57;54.59;99001.41;4379348;32;33883;-92
2023/04/24 06:15:47;;;;;;;;;;;;;;;16.55;56.04;99003.31;4428297;32;32863;-91
2023/04/24 06:18:29;;;;;;;;;;;;;;;16.14;57.78;99010.13;4405486;32;33980;-95
2023/04/24 06:21:13;;;;;;;;;;;;;;;16.56;57.33;98987.19;4405498;32;34830;-92
2023/04/24 06:24:10;;;;;;;;;;;;;;;16.41;58.21;99001.78;4417843;32;34615;-90
2023/04/24 06:26:41;;;;;;;;;;;;;;;16.39;57.99;98995.72;4395422;32;33876;-88
2023/04/24 06:29:09;;;;;;;;;;;;;;;16.38;58.15;98984.22;4393048;32;33893;-89
2023/04/24 06:31:38;;;;;;;;;;;;;;;16.39;58.80;99006.41;4419235;32;33276;-90
2023/04/24 06:34:06;;;;;;;;;;;;;;;16.33;58.76;98994.41;4380642;32;31667;-90
2023/04/24 06:36:34;;;;;;;;;;;;;;;16.48;57.75;98992.34;4406779;32;32879;-89
2023/04/24 06:39:03;;;;;;;;;;;;;;;16.39;58.63;98991.25;4395485;32;33181;-89
2023/04/24 06:41:32;;;;;;;;;;;;;;;16.68;57.93;98988.03;4406788;32;34084;-89
2023/04/24 06:44:02;;;;;;;;;;;;;;;16.43;58.65;98986.53;4406068;32;32377;-89
2023/04/24 06:46:31;;;;;;;;;;;;;;;16.58;58.18;98987.94;4405876;32;34360;-89
2023/04/24 06:49:00;;;;;;;;;;;;;;;16.40;58.76;98989.44;4405319;32;34768;-89
2023/04/24 06:51:28;;;;;;;;;;;;;;;16.16;59.30;98991.41;4418944;32;34177;-89
2023/04/24 06:53:56;;;;;;;;;;;;;;;16.21;59.09;98991.88;4409798;32;32525;-89
2023/04/24 06:56:25;;;;;;;;;;;;;;;16.18;59.48;98990.28;4406080;32;34544;-89
2023/04/24 06:58:53;;;;;;;;;;;;;;;16.21;59.21;98983.88;4419268;32;33887;-89
2023/04/24 07:01:21;;;;;;;;;;;;;;;16.52;58.09;98972.47;4399088;32;32597;-89
2023/04/24 07:03:49;;;;;;;;;;;;;;;16.78;57.23;98981.00;4406464;32;33451;-89
2023/04/24 07:06:21;;;;;;;;;;;;;;;16.88;56.32;98981.09;4405940;32;32985;-90
2023/04/24 07:08:51;;;;;;;;;;;;;;;16.59;58.06;98992.28;4406653;32;33237;-88
2023/04/24 07:11:19;;;;;;;;;;;;;;;16.45;58.25;98981.06;4398665;32;34208;-88
2023/04/24 07:13:50;;;;;;;;;;;;;;;16.52;57.98;98988.44;4403693;32;32229;-89
2023/04/24 07:16:25;;;;;;;;;;;;;;;16.54;58.20;98989.16;4418208;32;35733;-90
2023/04/24 07:18:56;;;;;;;;;;;;;;;16.13;59.53;98982.66;4416246;32;32759;-88
2023/04/24 07:21:27;;;;;;;;;;;;;;;16.01;60.21;98977.50;4395175;32;34047;-89
2023/04/24 07:23:54;;;;;;;;;;;;;;;16.19;59.54;98981.34;4419550;32;33849;-89
2023/04/24 07:26:24;;;;;;;;;;;;;;;16.43;58.51;98975.03;4419864;32;34107;-89
2023/04/24 07:28:57;;;;;;;;;;;;;;;16.51;58.44;98976.06;4393683;32;33071;-88
2023/04/24 07:31:30;;;;;;;;;;;;;;;16.68;57.94;98968.53;4405962;32;33284;-89
2023/04/24 07:34:00;;;;;;;;;;;;;;;16.93;57.89;98970.91;4393582;32;34249;-88
2023/04/24 07:36:29;;;;;;;;;;;;;;;17.08;57.75;98964.28;4407087;32;34172;-89
2023/04/24 07:38:59;;;;;;;;;;;;;;;17.17;56.98;98975.16;4394605;32;34049;-89
2023/04/24 07:41:27;;;;;;;;;;;;;;;17.32;57.46;98976.53;4394269;32;33203;-89
2023/04/24 07:43:57;;;;;;;;;;;;;;;17.52;56.65;98977.50;4419390;32;33029;-89
2023/04/24 07:46:29;;;;;;;;;;;;;;;17.52;56.66;98989.03;4394585;32;32883;-89
2023/04/24 07:48:58;;;;;;;;;;;;;;;18.02;55.81;98983.00;4406934;32;34689;-89
2023/04/24 07:51:41;;;;;;;;;;;;;;;18.05;55.48;98986.25;4418236;32;34110;-89
2023/04/24 07:54:10;;;;;;;;;;;;;;;17.57;56.96;98988.66;4394701;32;32049;-89
2023/04/24 07:56:38;;;;;;;;;;;;;;;17.94;55.94;98983.66;4404263;32;33392;-89
2023/04/24 07:59:11;;;;;;;;;;;;;;;18.55;55.46;98978.25;4407120;32;33703;-89
2023/04/24 08:01:45;;;;;;;;;;;;;;;18.48;54.23;98979.78;4407388;32;33503;-90
2023/04/24 08:04:15;;;;;;;;;;;;;;;18.18;55.10;98980.66;4393557;32;32917;-88
2023/04/24 08:06:45;;;;;;;;;;;;;;;18.06;54.85;98979.94;4407232;32;34538;-89
2023/04/24 08:09:19;;;;;;;;;;;;;;;18.58;53.93;98969.97;4406890;32;32946;-89
2023/04/24 08:11:51;;;;;;;;;;;;;;;18.90;53.83;98960.88;4403368;32;33916;-89
2023/04/24 08:14:19;;;;;;;;;;;;;;;18.58;54.07;98975.31;4406957;32;32629;-89
2023/04/24 08:16:49;;;;;;;;;;;;;;;18.81;53.76;98967.91;4406567;32;35069;-88
2023/04/24 08:19:16;;;;;;;;;;;;;;;18.45;54.10;98972.03;4392507;32;33722;-88
2023/04/24 08:21:45;;;;;;;;;;;;;;;18.34;54.12;98974.84;4404952;32;34351;-89
2023/04/24 08:24:17;;;;;;;;;;;;;;;18.26;54.89;98972.81;4419754;32;34121;-89
2023/04/24 08:26:50;;;;;;;;;;;;;;;18.57;53.92;98968.28;4396003;32;33362;-89
2023/04/24 08:29:24;;;;;;;;;;;;;;;18.62;53.35;98963.34;4419753;32;33985;-89
2023/04/24 08:31:54;;;;;;;;;;;;;;;19.00;53.17;98956.37;4396206;32;34132;-90
2023/04/24 08:34:22;;;;;;;;;;;;;;;18.84;52.85;98962.25;4408094;32;33233;-89
2023/04/24 08:37:01;;;;;;;;;;;;;;;18.99;52.47;98960.03;4409382;32;33803;-89
2023/04/24 08:39:30;;;;;;;;;;;;;;;19.29;51.60;98955.50;4421122;32;32874;-90
2023/04/24 08:42:05;;;;;;;;;;;;;;;19.42;51.17;98961.41;4408525;32;32799;-90
2023/04/24 08:44:35;;;;;;;;;;;;;;;19.44;51.15;98965.63;4396380;32;32475;-90
2023/04/24 08:47:03;;;;;;;;;;;;;;;19.30;50.93;98962.56;4420126;32;33631;-91
2023/04/24 08:49:33;;;;;;;;;;;;;;;19.45;50.72;98969.16;4396131;32;33259;-90
2023/04/24 08:52:01;;;;;;;;;;;;;;;19.49;50.58;98962.50;4405171;32;32862;-90
2023/04/24 08:54:29;;;;;;;;;;;;;;;19.47;50.23;98964.50;4421644;32;33254;-90
2023/04/24 08:57:03;;;;;;;;;;;;;;;19.72;49.05;98954.19;4420463;32;32959;-90
2023/04/24 08:59:35;;;;;;;;;;;;;;;20.13;50.09;98961.78;4408392;32;33127;-90
2023/04/24 09:02:04;;;;;;;;;;;;;;;20.31;49.90;98952.94;4421098;32;33513;-89
2023/04/24 09:04:32;;;;;;;;;;;;;;;20.61;46.58;98949.13;4414766;32;32440;-90
2023/04/24 09:07:01;;;;;;;;;;;;;;;20.80;47.53;98946.31;4420679;32;33876;-90
2023/04/24 09:09:30;;;;;;;;;;;;;;;20.82;47.54;98955.03;4408232;32;34438;-90
2023/04/24 09:11:58;;;;;;;;;;;;;;;20.55;47.17;98961.28;4420883;32;33143;-90
2023/04/24 09:14:27;;;;;;;;;;;;;;;20.60;46.91;98950.09;4396284;32;32958;-89
2023/04/24 09:16:58;;;;;;;;;;;;;;;20.25;46.39;98943.66;4410116;32;33575;-88
2023/04/24 09:19:27;;;;;;;;;;;;;;;20.64;46.16;98936.25;4413948;32;33011;-89
2023/04/24 09:21:57;;;;;;;;;;;;;;;20.61;46.08;98939.25;4422063;32;33045;-91
2023/04/24 09:24:29;;;;;;;;;;;;;;;21.06;43.93;98932.94;4423088;32;32473;-90
2023/04/24 09:27:03;;;;;;;;;;;;;;;21.08;45.09;98943.53;4421858;32;32926;-89
2023/04/24 09:29:33;;;;;;;;;;;;;;;21.17;45.72;98938.09;4409642;32;32798;-89
2023/04/24 09:32:18;;;;;;;;;;;;;;;21.33;45.32;98937.41;4421267;32;33389;-90
2023/04/24 09:34:46;;;;;;;;;;;;;;;21.53;44.55;98929.97;4421132;32;32941;-90
2023/04/24 09:37:30;;;;;;;;;;;;;;;21.53;43.48;98934.50;4419498;32;33154;-89
2023/04/24 09:40:22;;;;;;;;;;;;;;;21.39;45.51;98933.25;4410400;32;32851;-89
2023/04/24 09:42:51;;;;;;;;;;;;;;;21.15;45.63;98931.19;4404252;32;33817;-90
2023/04/24 09:45:21;;;;;;;;;;;;;;;21.34;46.09;98924.81;4416404;32;32877;-89
2023/04/24 09:47:52;;;;;;;;;;;;;;;21.23;45.24;98920.50;4415975;32;33263;-89
2023/04/24 09:50:21;;;;;;;;;;;;;;;20.51;46.53;98919.69;4417151;32;33569;-89
2023/04/24 09:52:58;;;;;;;;;;;;;;;20.83;45.38;98921.84;4417286;32;33330;-88
2023/04/24 09:55:27;;;;;;;;;;;;;;;20.29;46.20;98920.91;4403733;32;32773;-89
2023/04/24 09:57:56;;;;;;;;;;;;;;;20.58;45.51;98923.44;4389719;32;32480;-90
2023/04/24 10:00:30;;;;;;;;;;;;;;;20.58;44.50;98919.91;4404885;32;33038;-88
2023/04/24 10:03:02;;;;;;;;;;;;;;;20.60;46.05;98918.75;4417543;32;32405;-90
2023/04/24 10:05:32;;;;;;;;;;;;;;;20.56;47.08;98920.09;4415422;32;32467;-90
2023/04/24 10:10:42;;;;;;;;;;;;;;;20.69;45.91;98920.53;4421626;32;33854;-90
2023/04/24 10:13:12;;;;;;;;;;;;;;;20.78;46.06;98921.44;4408715;32;34792;-89
2023/04/24 10:15:47;;;;;;;;;;;;;;;20.89;46.53;98920.41;4407173;32;33480;-90
2023/04/24 10:18:15;;;;;;;;;;;;;;;20.94;46.37;98923.47;4397470;32;34701;-89
2023/04/24 10:20:45;;;;;;;;;;;;;;;20.61;46.02;98923.16;4394591;32;33670;-88
2023/04/24 10:23:14;;;;;;;;;;;;;;;20.80;45.51;98915.97;4408343;32;33005;-88
2023/04/24 10:25:47;;;;;;;;;;;;;;;20.73;44.68;98914.88;4408908;32;32380;-90
2023/04/24 10:28:16;;;;;;;;;;;;;;;20.63;45.50;98918.47;4422084;32;33828;-90
2023/04/24 10:30:46;;;;;;;;;;;;;;;20.78;45.55;98908.03;4421958;32;33143;-90
2023/04/24 10:33:15;;;;;;;;;;;;;;;20.71;45.82;98907.81;4409049;32;33041;-90
2023/04/24 10:35:45;;;;;;;;;;;;;;;21.18;45.44;98909.41;4420435;32;32492;-90
2023/04/24 10:38:24;;;;;;;;;;;;;;;21.60;44.19;98904.19;4409832;32;32505;-90
2023/04/24 10:40:58;;;;;;;;;;;;;;;21.62;44.89;98904.84;4407087;32;33469;-90
2023/04/24 10:46:04;;;;;;;;;;;;;;;20.92;44.57;98912.88;4421741;32;34122;-91
2023/04/24 10:48:41;;;;;;;;;;;;;;;20.39;45.56;98907.47;4420750;32;33443;-91
2023/04/24 10:51:15;;;;;;;;;;;;;;;20.52;45.32;98907.97;4397690;32;33207;-91
2023/04/24 10:53:52;;;;;;;;;;;;;;;20.34;45.79;98897.19;4410605;32;33927;-90
2023/04/24 10:56:22;;;;;;;;;;;;;;;20.39;45.93;98902.09;4411887;32;32667;-91
2023/04/24 10:58:53;;;;;;;;;;;;;;;20.87;45.21;98898.22;4407859;32;33281;-91
2023/04/24 11:01:29;;;;;;;;;;;;;;;21.32;43.92;98886.53;4397213;32;33025;-90
2023/04/24 11:04:02;;;;;;;;;;;;;;;21.03;44.57;98893.03;4395928;32;33276;-91
2023/04/24 11:06:35;;;;;;;;;;;;;;;21.17;44.56;98894.28;4420783;32;32633;-91
2023/04/24 11:09:12;;;;;;;;;;;;;;;20.97;43.48;98890.94;4422650;32;34351;-91
2023/04/24 11:11:46;;;;;;;;;;;;;;;20.68;42.60;98886.66;4416542;32;32853;-91
2023/04/24 11:14:15;;;;;;;;;;;;;;;21.43;41.14;98871.00;4408610;32;34894;-90
2023/04/24 11:16:47;;;;;;;;;;;;;;;21.19;40.30;98885.06;4396925;32;32015;-91
2023/04/24 11:19:19;;;;;;;;;;;;;;;21.30;40.65;98875.91;4419695;32;33875;-91
2023/04/24 11:21:49;;;;;;;;;;;;;;;21.78;40.18;98874.53;4420867;32;34035;-91
2023/04/24 11:24:26;;;;;;;;;;;;;;;21.35;40.89;98887.06;4409908;32;33466;-91
2023/04/24 11:27:06;;;;;;;;;;;;;;;21.63;40.17;98874.28;4421978;32;33515;-90
2023/04/24 11:29:42;;;;;;;;;;;;;;;21.23;40.82;98870.34;4408119;32;33332;-90
2023/04/24 11:32:26;;;;;;;;;;;;;;;21.63;40.13;98868.91;4420903;32;34551;-91
2023/04/24 11:34:56;;;;;;;;;;;;;;;22.09;40.62;98872.16;4421266;32;33122;-90
2023/04/24 11:37:29;;;;;;;;;;;;;;;22.26;39.64;98861.47;4409450;32;32775;-90
2023/04/24 11:39:58;;;;;;;;;;;;;;;23.18;38.87;98857.69;4421464;32;33056;-91
2023/04/24 11:42:40;;;;;;;;;;;;;;;22.90;39.03;98841.91;4402246;32;34418;-91
2023/04/24 11:45:09;;;;;;;;;;;;;;;22.79;38.51;98858.37;4396113;32;33377;-91
2023/04/24 11:47:42;;;;;;;;;;;;;;;22.79;37.68;98850.28;4422223;32;32507;-91
2023/04/24 11:50:17;;;;;;;;;;;;;;;23.15;37.48;98837.31;4411935;32;32645;-91
2023/04/24 11:52:49;;;;;;;;;;;;;;;22.69;37.86;98844.19;4409229;32;33366;-91
2023/04/24 11:55:20;;;;;;;;;;;;;;;23.07;36.47;98842.72;4396848;32;33876;-92
2023/04/24 11:57:57;;;;;;;;;;;;;;;23.23;35.82;98844.56;4416819;32;34077;-90
2023/04/24 12:00:28;;;;;;;;;;;;;;;23.29;35.02;98830.41;4391352;32;33162;-90
2023/04/24 12:03:09;;;;;;;;;;;;;;;22.99;35.67;98832.81;4420218;32;33133;-91
2023/04/24 12:05:40;;;;;;;;;;;;;;;22.66;36.13;98831.94;4409389;32;32948;-90
2023/04/24 12:08:26;;;;;;;;;;;;;;;22.68;35.57;98829.91;4405379;32;33332;-91
2023/04/24 12:10:59;;;;;;;;;;;;;;;22.72;35.78;98825.88;4413555;32;33356;-91
2023/04/24 12:13:35;;;;;;;;;;;;;;;23.45;35.56;98824.97;4403475;32;33925;-96
2023/04/24 12:16:26;;;;;;;;;;;;;;;23.61;35.36;98826.78;4387370;32;32471;-93
2023/04/24 12:19:11;;;;;;;;;;;;;;;23.24;35.69;98819.31;4397688;32;32542;-94
2023/04/24 12:22:49;;;;;;;;;;;;;;;23.09;36.04;98821.84;4375453;32;35771;-92
2023/04/24 12:25:44;;;;;;;;;;;;;;;22.55;36.78;98826.03;4390728;32;33342;-93
2023/04/24 12:28:34;;;;;;;;;;;;;;;22.73;37.20;98827.56;4386107;32;33392;-94
2023/04/24 12:31:32;;;;;;;;;;;;;;;22.57;36.74;98810.59;4358036;32;33948;-91
2023/04/24 12:34:06;;;;;;;;;;;;;;;22.71;36.76;98824.19;4373023;32;33027;-93
2023/04/24 12:37:10;;;;;;;;;;;;;;;22.44;37.51;98813.75;4375108;32;32960;-91
2023/04/24 12:40:08;;;;;;;;;;;;;;;22.76;37.32;98815.62;4394311;32;33772;-92
2023/04/24 12:43:01;;;;;;;;;;;;;;;23.29;35.57;98797.25;4410906;32;33732;-92
2023/04/24 12:45:52;;;;;;;;;;;;;;;23.15;35.61;98805.00;4394184;32;34723;-91
2023/04/24 12:48:42;;;;;;;;;;;;;;;22.37;36.93;98804.69;4394561;32;33084;-92
2023/04/24 12:51:43;;;;;;;;;;;;;;;22.06;37.45;98799.88;4376278;32;32694;-92
2023/04/24 12:54:26;;;;;;;;;;;;;;;21.72;38.40;98799.94;4368852;32;32394;-91
2023/04/24 12:57:22;;;;;;;;;;;;;;;21.58;39.06;98801.41;4394864;32;35082;-91
2023/04/24 13:00:12;;;;;;;;;;;;;;;21.90;38.70;98794.47;4375391;32;33465;-92
2023/04/24 13:03:13;;;;;;;;;;;;;;;22.48;38.25;98790.91;4412031;32;34657;-91
2023/04/24 13:05:54;;;;;;;;;;;;;;;22.72;37.71;98790.91;4391478;32;32115;-91
2023/04/24 13:08:51;;;;;;;;;;;;;;;22.61;38.62;98783.19;4387116;32;35573;-91
2023/04/24 13:11:44;;;;;;;;;;;;;;;22.56;38.89;98777.47;4425135;32;35743;-91
2023/04/24 13:14:37;;;;;;;;;;;;;;;22.46;39.58;98776.78;4382174;32;32864;-90
2023/04/24 13:17:31;;;;;;;;;;;;;;;22.49;40.75;98792.56;4379270;32;32798;-93
2023/04/24 13:20:15;;;;;;;;;;;;;;;22.10;41.75;98787.78;4379827;32;33769;-87
2023/04/24 13:22:50;;;;;;;;;;;;;;;22.07;42.08;98792.66;4377493;32;34232;-88
2023/04/24 13:25:23;;;;;;;;;;;;;;;21.77;41.71;98789.56;4402675;32;31122;-87
2023/04/24 13:27:52;;;;;;;;;;;;;;;21.39;42.74;98798.97;4401770;32;32811;-87
2023/04/24 13:30:25;;;;;;;;;;;;;;;21.20;45.04;98800.84;4377707;32;33870;-86
2023/04/24 13:32:57;;;;;;;;;;;;;;;21.43;44.69;98803.84;4400083;32;32865;-87